sensor_id;sensor_type;location;lat;lon;timestamp;P1;durP1;ratioP1;P2;durP2;ratioP2
45909;SDS011;31622;55.416;37.840;2023-04-30T00:00:51;5.43;;;3.80;;
45909;SDS011;31622;55.416;37.840;2023-04-30T00:03:17;4.82;;;3.60;;
45909;SDS011;31622;55.416;37.840;2023-04-30T00:05:43;5.00;;;3.78;;
45909;SDS011;31622;55.416;37.840;2023-04-30T00:08:08;6.85;;;4.15;;
45909;SDS011;31622;55.416;37.840;2023-04-30T00:10:35;5.90;;;3.70;;
45909;SDS011;31622;55.416;37.840;2023-04-30T00:13:00;5.10;;;3.95;;
45909;SDS011;31622;55.416;37.840;2023-04-30T00:15:26;6.55;;;4.00;;
45909;SDS011;31622;55.416;37.840;2023-04-30T00:17:52;5.28;;;3.88;;
45909;SDS011;31622;55.416;37.840;2023-04-30T00:20:17;6.15;;;3.83;;
45909;SDS011;31622;55.416;37.840;2023-04-30T00:22:43;8.75;;;4.38;;
45909;SDS011;31622;55.416;37.840;2023-04-30T00:25:09;6.03;;;4.03;;
45909;SDS011;31622;55.416;37.840;2023-04-30T00:27:35;6.85;;;4.03;;
45909;SDS011;31622;55.416;37.840;2023-04-30T00:30:01;5.38;;;4.10;;
45909;SDS011;31622;55.416;37.840;2023-04-30T00:32:27;5.22;;;3.85;;
45909;SDS011;31622;55.416;37.840;2023-04-30T00:34:52;5.35;;;3.78;;
45909;SDS011;31622;55.416;37.840;2023-04-30T00:37:18;5.47;;;4.00;;
45909;SDS011;31622;55.416;37.840;2023-04-30T00:39:44;7.00;;;4.13;;
45909;SDS011;31622;55.416;37.840;2023-04-30T00:42:10;4.93;;;3.83;;
45909;SDS011;31622;55.416;37.840;2023-04-30T00:44:35;5.88;;;3.55;;
45909;SDS011;31622;55.416;37.840;2023-04-30T00:47:01;5.15;;;3.42;;
45909;SDS011;31622;55.416;37.840;2023-04-30T00:49:27;5.07;;;3.47;;
45909;SDS011;31622;55.416;37.840;2023-04-30T00:51:53;6.07;;;3.47;;
45909;SDS011;31622;55.416;37.840;2023-04-30T00:54:19;7.97;;;3.85;;
45909;SDS011;31622;55.416;37.840;2023-04-30T00:56:45;5.05;;;3.28;;
45909;SDS011;31622;55.416;37.840;2023-04-30T00:59:14;6.32;;;3.50;;
45909;SDS011;31622;55.416;37.840;2023-04-30T01:01:40;4.85;;;3.72;;
45909;SDS011;31622;55.416;37.840;2023-04-30T01:04:06;7.40;;;3.53;;
45909;SDS011;31622;55.416;37.840;2023-04-30T01:06:31;8.18;;;4.03;;
45909;SDS011;31622;55.416;37.840;2023-04-30T01:08:57;4.65;;;3.45;;
45909;SDS011;31622;55.416;37.840;2023-04-30T01:11:29;5.32;;;3.60;;
45909;SDS011;31622;55.416;37.840;2023-04-30T01:14:21;5.68;;;3.53;;
45909;SDS011;31622;55.416;37.840;2023-04-30T01:17:16;5.35;;;3.60;;
45909;SDS011;31622;55.416;37.840;2023-04-30T01:19:50;6.60;;;3.60;;
45909;SDS011;31622;55.416;37.840;2023-04-30T01:25:05;5.13;;;3.63;;
45909;SDS011;31622;55.416;37.840;2023-04-30T01:30:32;5.25;;;3.63;;
45909;SDS011;31622;55.416;37.840;2023-04-30T01:32:58;5.03;;;3.67;;
45909;SDS011;31622;55.416;37.840;2023-04-30T01:40:52;4.30;;;3.40;;
45909;SDS011;31622;55.416;37.840;2023-04-30T01:46:27;6.72;;;3.42;;
45909;SDS011;31622;55.416;37.840;2023-04-30T01:52:08;5.03;;;3.38;;
45909;SDS011;31622;55.416;37.840;2023-04-30T01:54:44;5.78;;;3.55;;
45909;SDS011;31622;55.416;37.840;2023-04-30T01:57:17;4.53;;;3.55;;
45909;SDS011;31622;55.416;37.840;2023-04-30T01:59:47;5.68;;;3.60;;
45909;SDS011;31622;55.416;37.840;2023-04-30T02:02:13;5.53;;;3.85;;
45909;SDS011;31622;55.416;37.840;2023-04-30T02:04:39;5.45;;;3.80;;
45909;SDS011;31622;55.416;37.840;2023-04-30T02:07:04;5.53;;;3.78;;
45909;SDS011;31622;55.416;37.840;2023-04-30T02:09:30;5.72;;;4.00;;
45909;SDS011;31622;55.416;37.840;2023-04-30T02:11:56;5.15;;;4.00;;
45909;SDS011;31622;55.416;37.840;2023-04-30T02:14:22;5.15;;;3.60;;
45909;SDS011;31622;55.416;37.840;2023-04-30T02:16:51;5.03;;;3.40;;
45909;SDS011;31622;55.416;37.840;2023-04-30T02:19:17;7.40;;;3.90;;
45909;SDS011;31622;55.416;37.840;2023-04-30T02:21:42;5.30;;;4.13;;
45909;SDS011;31622;55.416;37.840;2023-04-30T02:24:08;5.82;;;3.97;;
45909;SDS011;31622;55.416;37.840;2023-04-30T02:26:34;7.35;;;4.30;;
45909;SDS011;31622;55.416;37.840;2023-04-30T02:28:59;7.07;;;4.10;;
45909;SDS011;31622;55.416;37.840;2023-04-30T02:31:25;5.35;;;3.83;;
45909;SDS011;31622;55.416;37.840;2023-04-30T02:33:51;8.98;;;4.50;;
45909;SDS011;31622;55.416;37.840;2023-04-30T02:36:17;6.15;;;3.90;;
45909;SDS011;31622;55.416;37.840;2023-04-30T02:38:42;7.03;;;3.80;;
45909;SDS011;31622;55.416;37.840;2023-04-30T02:41:08;6.18;;;4.30;;
45909;SDS011;31622;55.416;37.840;2023-04-30T02:43:34;4.95;;;3.90;;
45909;SDS011;31622;55.416;37.840;2023-04-30T02:45:59;7.20;;;3.92;;
45909;SDS011;31622;55.416;37.840;2023-04-30T02:48:25;6.32;;;4.32;;
45909;SDS011;31622;55.416;37.840;2023-04-30T02:50:51;6.03;;;3.90;;
45909;SDS011;31622;55.416;37.840;2023-04-30T02:53:17;6.15;;;4.10;;
45909;SDS011;31622;55.416;37.840;2023-04-30T02:55:43;7.88;;;4.55;;
45909;SDS011;31622;55.416;37.840;2023-04-30T02:58:08;5.97;;;3.83;;
45909;SDS011;31622;55.416;37.840;2023-04-30T03:00:34;7.18;;;4.07;;
45909;SDS011;31622;55.416;37.840;2023-04-30T03:03:00;8.45;;;4.20;;
45909;SDS011;31622;55.416;37.840;2023-04-30T03:05:26;6.38;;;4.28;;
45909;SDS011;31622;55.416;37.840;2023-04-30T03:07:52;7.80;;;4.60;;
45909;SDS011;31622;55.416;37.840;2023-04-30T03:10:18;6.60;;;4.30;;
45909;SDS011;31622;55.416;37.840;2023-04-30T03:12:43;7.78;;;4.30;;
45909;SDS011;31622;55.416;37.840;2023-04-30T03:15:09;8.88;;;4.45;;
45909;SDS011;31622;55.416;37.840;2023-04-30T03:17:35;6.10;;;4.35;;
45909;SDS011;31622;55.416;37.840;2023-04-30T03:20:01;8.00;;;4.43;;
45909;SDS011;31622;55.416;37.840;2023-04-30T03:22:27;7.95;;;4.40;;
45909;SDS011;31622;55.416;37.840;2023-04-30T03:24:52;7.15;;;4.25;;
45909;SDS011;31622;55.416;37.840;2023-04-30T03:27:18;9.65;;;5.07;;
45909;SDS011;31622;55.416;37.840;2023-04-30T03:29:44;8.18;;;4.90;;
45909;SDS011;31622;55.416;37.840;2023-04-30T03:32:09;7.07;;;4.63;;
45909;SDS011;31622;55.416;37.840;2023-04-30T03:34:35;5.70;;;4.32;;
45909;SDS011;31622;55.416;37.840;2023-04-30T03:37:01;5.90;;;4.30;;
45909;SDS011;31622;55.416;37.840;2023-04-30T03:39:28;6.22;;;4.45;;
45909;SDS011;31622;55.416;37.840;2023-04-30T03:41:53;6.70;;;4.68;;
45909;SDS011;31622;55.416;37.840;2023-04-30T03:44:19;6.00;;;4.43;;
45909;SDS011;31622;55.416;37.840;2023-04-30T03:46:45;8.23;;;5.20;;
45909;SDS011;31622;55.416;37.840;2023-04-30T03:49:11;5.50;;;3.97;;
45909;SDS011;31622;55.416;37.840;2023-04-30T03:51:37;6.25;;;4.35;;
45909;SDS011;31622;55.416;37.840;2023-04-30T03:54:06;5.15;;;3.90;;
45909;SDS011;31622;55.416;37.840;2023-04-30T03:56:32;6.80;;;4.10;;
45909;SDS011;31622;55.416;37.840;2023-04-30T03:58:58;8.30;;;4.80;;
45909;SDS011;31622;55.416;37.840;2023-04-30T04:01:25;8.48;;;4.20;;
45909;SDS011;31622;55.416;37.840;2023-04-30T04:03:51;6.15;;;4.10;;
45909;SDS011;31622;55.416;37.840;2023-04-30T04:06:16;7.88;;;4.18;;
45909;SDS011;31622;55.416;37.840;2023-04-30T04:08:42;6.35;;;4.07;;
45909;SDS011;31622;55.416;37.840;2023-04-30T04:11:10;6.10;;;3.97;;
45909;SDS011;31622;55.416;37.840;2023-04-30T04:13:37;8.98;;;4.78;;
45909;SDS011;31622;55.416;37.840;2023-04-30T04:16:03;5.95;;;4.30;;
45909;SDS011;31622;55.416;37.840;2023-04-30T04:18:28;7.30;;;4.43;;
45909;SDS011;31622;55.416;37.840;2023-04-30T04:20:54;4.53;;;3.95;;
45909;SDS011;31622;55.416;37.840;2023-04-30T04:23:21;6.10;;;4.25;;
45909;SDS011;31622;55.416;37.840;2023-04-30T04:25:47;7.05;;;4.40;;
45909;SDS011;31622;55.416;37.840;2023-04-30T04:28:16;5.88;;;4.43;;
45909;SDS011;31622;55.416;37.840;2023-04-30T04:30:42;8.15;;;4.68;;
45909;SDS011;31622;55.416;37.840;2023-04-30T04:33:08;4.75;;;3.50;;
45909;SDS011;31622;55.416;37.840;2023-04-30T04:35:35;5.88;;;3.85;;
45909;SDS011;31622;55.416;37.840;2023-04-30T04:38:01;7.10;;;4.30;;
45909;SDS011;31622;55.416;37.840;2023-04-30T04:40:27;5.18;;;3.92;;
45909;SDS011;31622;55.416;37.840;2023-04-30T04:42:53;4.70;;;2.95;;
45909;SDS011;31622;55.416;37.840;2023-04-30T04:45:19;6.05;;;3.58;;
45909;SDS011;31622;55.416;37.840;2023-04-30T04:47:46;4.90;;;3.15;;
45909;SDS011;31622;55.416;37.840;2023-04-30T04:50:13;4.50;;;3.55;;
45909;SDS011;31622;55.416;37.840;2023-04-30T04:52:39;4.07;;;2.95;;
45909;SDS011;31622;55.416;37.840;2023-04-30T04:55:05;6.38;;;3.40;;
45909;SDS011;31622;55.416;37.840;2023-04-30T04:57:31;5.18;;;3.60;;
45909;SDS011;31622;55.416;37.840;2023-04-30T04:59:57;5.38;;;3.70;;
45909;SDS011;31622;55.416;37.840;2023-04-30T05:02:23;6.90;;;4.50;;
45909;SDS011;31622;55.416;37.840;2023-04-30T05:04:49;7.43;;;4.97;;
45909;SDS011;31622;55.416;37.840;2023-04-30T05:07:17;10.10;;;5.32;;
45909;SDS011;31622;55.416;37.840;2023-04-30T05:09:46;8.95;;;4.95;;
45909;SDS011;31622;55.416;37.840;2023-04-30T05:12:12;11.40;;;5.28;;
45909;SDS011;31622;55.416;37.840;2023-04-30T05:14:38;5.32;;;4.10;;
45909;SDS011;31622;55.416;37.840;2023-04-30T05:17:04;6.43;;;4.28;;
45909;SDS011;31622;55.416;37.840;2023-04-30T05:19:31;6.50;;;4.35;;
45909;SDS011;31622;55.416;37.840;2023-04-30T05:21:57;5.38;;;3.45;;
45909;SDS011;31622;55.416;37.840;2023-04-30T05:24:24;4.68;;;3.60;;
45909;SDS011;31622;55.416;37.840;2023-04-30T05:26:50;8.93;;;4.07;;
45909;SDS011;31622;55.416;37.840;2023-04-30T05:29:16;8.52;;;4.15;;
45909;SDS011;31622;55.416;37.840;2023-04-30T05:31:41;5.15;;;3.80;;
45909;SDS011;31622;55.416;37.840;2023-04-30T05:34:07;6.40;;;4.15;;
45909;SDS011;31622;55.416;37.840;2023-04-30T05:36:33;5.25;;;3.72;;
45909;SDS011;31622;55.416;37.840;2023-04-30T05:38:58;6.28;;;3.60;;
45909;SDS011;31622;55.416;37.840;2023-04-30T05:41:24;5.97;;;4.03;;
45909;SDS011;31622;55.416;37.840;2023-04-30T05:43:50;6.30;;;3.70;;
45909;SDS011;31622;55.416;37.840;2023-04-30T05:46:16;10.80;;;3.22;;
45909;SDS011;31622;55.416;37.840;2023-04-30T05:48:41;4.90;;;3.53;;
45909;SDS011;31622;55.416;37.840;2023-04-30T05:51:07;7.13;;;3.53;;
45909;SDS011;31622;55.416;37.840;2023-04-30T05:53:34;5.20;;;3.40;;
45909;SDS011;31622;55.416;37.840;2023-04-30T05:56:00;5.00;;;3.70;;
45909;SDS011;31622;55.416;37.840;2023-04-30T05:58:26;5.90;;;3.80;;
45909;SDS011;31622;55.416;37.840;2023-04-30T06:00:52;8.75;;;3.45;;
45909;SDS011;31622;55.416;37.840;2023-04-30T06:03:18;9.63;;;3.90;;
45909;SDS011;31622;55.416;37.840;2023-04-30T06:05:44;14.52;;;3.85;;
45909;SDS011;31622;55.416;37.840;2023-04-30T06:08:11;7.28;;;2.88;;
45909;SDS011;31622;55.416;37.840;2023-04-30T06:10:37;7.80;;;3.50;;
45909;SDS011;31622;55.416;37.840;2023-04-30T06:13:03;7.45;;;4.18;;
45909;SDS011;31622;55.416;37.840;2023-04-30T06:15:29;5.57;;;3.72;;
45909;SDS011;31622;55.416;37.840;2023-04-30T06:17:54;7.63;;;4.20;;
45909;SDS011;31622;55.416;37.840;2023-04-30T06:20:20;9.20;;;3.95;;
45909;SDS011;31622;55.416;37.840;2023-04-30T06:22:46;4.72;;;3.58;;
45909;SDS011;31622;55.416;37.840;2023-04-30T06:25:12;5.95;;;4.57;;
45909;SDS011;31622;55.416;37.840;2023-04-30T06:27:37;9.30;;;4.78;;
45909;SDS011;31622;55.416;37.840;2023-04-30T06:30:03;14.55;;;5.38;;
45909;SDS011;31622;55.416;37.840;2023-04-30T06:32:29;9.80;;;5.45;;
45909;SDS011;31622;55.416;37.840;2023-04-30T06:34:55;9.52;;;5.65;;
45909;SDS011;31622;55.416;37.840;2023-04-30T06:37:21;21.88;;;8.82;;
45909;SDS011;31622;55.416;37.840;2023-04-30T06:39:47;30.48;;;8.75;;
45909;SDS011;31622;55.416;37.840;2023-04-30T06:42:13;26.30;;;9.38;;
45909;SDS011;31622;55.416;37.840;2023-04-30T06:44:39;24.08;;;7.97;;
45909;SDS011;31622;55.416;37.840;2023-04-30T06:47:05;21.52;;;8.35;;
45909;SDS011;31622;55.416;37.840;2023-04-30T06:49:30;16.75;;;6.95;;
45909;SDS011;31622;55.416;37.840;2023-04-30T06:51:56;15.57;;;6.57;;
45909;SDS011;31622;55.416;37.840;2023-04-30T06:54:23;14.30;;;6.55;;
45909;SDS011;31622;55.416;37.840;2023-04-30T06:56:51;19.75;;;5.65;;
45909;SDS011;31622;55.416;37.840;2023-04-30T06:59:16;16.58;;;5.57;;
45909;SDS011;31622;55.416;37.840;2023-04-30T07:01:42;17.80;;;6.57;;
45909;SDS011;31622;55.416;37.840;2023-04-30T07:04:08;20.10;;;7.32;;
45909;SDS011;31622;55.416;37.840;2023-04-30T07:06:33;20.73;;;6.20;;
45909;SDS011;31622;55.416;37.840;2023-04-30T07:08:59;15.00;;;6.38;;
45909;SDS011;31622;55.416;37.840;2023-04-30T07:11:25;12.75;;;4.88;;
45909;SDS011;31622;55.416;37.840;2023-04-30T07:13:50;11.85;;;5.28;;
45909;SDS011;31622;55.416;37.840;2023-04-30T07:16:17;16.95;;;5.57;;
45909;SDS011;31622;55.416;37.840;2023-04-30T07:18:43;12.38;;;5.03;;
45909;SDS011;31622;55.416;37.840;2023-04-30T07:21:09;9.90;;;4.90;;
45909;SDS011;31622;55.416;37.840;2023-04-30T07:23:34;10.13;;;4.22;;
45909;SDS011;31622;55.416;37.840;2023-04-30T07:26:00;9.88;;;4.53;;
45909;SDS011;31622;55.416;37.840;2023-04-30T07:28:26;10.90;;;4.72;;
45909;SDS011;31622;55.416;37.840;2023-04-30T07:30:52;12.77;;;5.40;;
45909;SDS011;31622;55.416;37.840;2023-04-30T07:33:17;8.77;;;4.15;;
45909;SDS011;31622;55.416;37.840;2023-04-30T07:35:43;7.80;;;4.13;;
45909;SDS011;31622;55.416;37.840;2023-04-30T07:38:09;11.25;;;3.92;;
45909;SDS011;31622;55.416;37.840;2023-04-30T07:40:35;10.75;;;4.13;;
45909;SDS011;31622;55.416;37.840;2023-04-30T07:43:01;10.05;;;4.43;;
45909;SDS011;31622;55.416;37.840;2023-04-30T07:45:26;10.80;;;3.92;;
45909;SDS011;31622;55.416;37.840;2023-04-30T07:47:53;12.30;;;4.18;;
45909;SDS011;31622;55.416;37.840;2023-04-30T07:50:18;8.65;;;3.88;;
45909;SDS011;31622;55.416;37.840;2023-04-30T07:52:44;6.18;;;3.08;;
45909;SDS011;31622;55.416;37.840;2023-04-30T07:55:10;5.00;;;2.95;;
45909;SDS011;31622;55.416;37.840;2023-04-30T07:57:35;7.53;;;3.38;;
45909;SDS011;31622;55.416;37.840;2023-04-30T08:00:01;5.97;;;3.00;;
45909;SDS011;31622;55.416;37.840;2023-04-30T08:02:37;4.80;;;2.80;;
45909;SDS011;31622;55.416;37.840;2023-04-30T08:05:03;8.43;;;3.53;;
45909;SDS011;31622;55.416;37.840;2023-04-30T08:07:30;7.45;;;2.60;;
45909;SDS011;31622;55.416;37.840;2023-04-30T08:09:55;6.25;;;2.60;;
45909;SDS011;31622;55.416;37.840;2023-04-30T08:12:21;6.43;;;2.50;;
45909;SDS011;31622;55.416;37.840;2023-04-30T08:14:47;4.32;;;2.47;;
45909;SDS011;31622;55.416;37.840;2023-04-30T08:17:12;5.13;;;1.98;;
45909;SDS011;31622;55.416;37.840;2023-04-30T08:19:38;5.25;;;2.28;;
45909;SDS011;31622;55.416;37.840;2023-04-30T08:22:04;4.47;;;2.03;;
45909;SDS011;31622;55.416;37.840;2023-04-30T08:24:29;4.10;;;2.38;;
45909;SDS011;31622;55.416;37.840;2023-04-30T08:26:55;4.82;;;2.30;;
45909;SDS011;31622;55.416;37.840;2023-04-30T08:29:21;4.68;;;2.08;;
45909;SDS011;31622;55.416;37.840;2023-04-30T08:31:46;5.03;;;2.05;;
45909;SDS011;31622;55.416;37.840;2023-04-30T08:34:12;4.50;;;2.20;;
45909;SDS011;31622;55.416;37.840;2023-04-30T08:36:38;3.42;;;1.67;;
45909;SDS011;31622;55.416;37.840;2023-04-30T08:39:03;4.35;;;1.90;;
45909;SDS011;31622;55.416;37.840;2023-04-30T08:41:31;3.58;;;1.92;;
45909;SDS011;31622;55.416;37.840;2023-04-30T08:44:00;4.03;;;2.00;;
45909;SDS011;31622;55.416;37.840;2023-04-30T08:46:27;4.20;;;1.88;;
45909;SDS011;31622;55.416;37.840;2023-04-30T08:48:53;5.60;;;2.03;;
45909;SDS011;31622;55.416;37.840;2023-04-30T08:51:19;4.25;;;1.77;;
45909;SDS011;31622;55.416;37.840;2023-04-30T08:53:45;2.95;;;1.63;;
45909;SDS011;31622;55.416;37.840;2023-04-30T08:56:11;3.80;;;1.58;;
45909;SDS011;31622;55.416;37.840;2023-04-30T08:58:36;3.65;;;1.70;;
45909;SDS011;31622;55.416;37.840;2023-04-30T09:01:02;3.60;;;1.50;;
45909;SDS011;31622;55.416;37.840;2023-04-30T09:03:31;3.38;;;1.52;;
45909;SDS011;31622;55.416;37.840;2023-04-30T09:05:56;3.28;;;1.55;;
45909;SDS011;31622;55.416;37.840;2023-04-30T09:11:42;2.47;;;1.30;;
45909;SDS011;31622;55.416;37.840;2023-04-30T09:14:01;3.08;;;1.50;;
45909;SDS011;31622;55.416;37.840;2023-04-30T09:17:09;2.80;;;1.70;;
45909;SDS011;31622;55.416;37.840;2023-04-30T09:19:27;3.53;;;1.58;;
45909;SDS011;31622;55.416;37.840;2023-04-30T09:21:54;5.85;;;1.60;;
45909;SDS011;31622;55.416;37.840;2023-04-30T09:24:20;4.18;;;1.70;;
45909;SDS011;31622;55.416;37.840;2023-04-30T09:26:46;3.63;;;1.60;;
45909;SDS011;31622;55.416;37.840;2023-04-30T09:29:13;5.28;;;1.75;;
45909;SDS011;31622;55.416;37.840;2023-04-30T09:31:41;2.53;;;1.65;;
45909;SDS011;31622;55.416;37.840;2023-04-30T09:34:09;3.88;;;1.50;;
45909;SDS011;31622;55.416;37.840;2023-04-30T09:36:34;3.72;;;1.60;;
45909;SDS011;31622;55.416;37.840;2023-04-30T09:39:07;3.58;;;1.50;;
45909;SDS011;31622;55.416;37.840;2023-04-30T09:41:38;4.80;;;2.28;;
45909;SDS011;31622;55.416;37.840;2023-04-30T09:44:04;3.78;;;1.40;;
45909;SDS011;31622;55.416;37.840;2023-04-30T09:46:34;2.72;;;1.23;;
45909;SDS011;31622;55.416;37.840;2023-04-30T09:49:04;4.85;;;1.60;;
45909;SDS011;31622;55.416;37.840;2023-04-30T09:51:30;2.72;;;1.30;;
45909;SDS011;31622;55.416;37.840;2023-04-30T09:53:56;4.10;;;1.58;;
45909;SDS011;31622;55.416;37.840;2023-04-30T09:56:23;2.85;;;1.40;;
45909;SDS011;31622;55.416;37.840;2023-04-30T09:58:53;3.72;;;1.52;;
45909;SDS011;31622;55.416;37.840;2023-04-30T10:01:21;2.55;;;1.33;;
45909;SDS011;31622;55.416;37.840;2023-04-30T10:03:47;4.85;;;1.40;;
45909;SDS011;31622;55.416;37.840;2023-04-30T10:06:14;3.47;;;1.38;;
45909;SDS011;31622;55.416;37.840;2023-04-30T10:08:43;4.45;;;1.33;;
45909;SDS011;31622;55.416;37.840;2023-04-30T10:11:14;3.03;;;1.60;;
45909;SDS011;31622;55.416;37.840;2023-04-30T10:13:44;2.38;;;1.40;;
45909;SDS011;31622;55.416;37.840;2023-04-30T10:16:14;3.35;;;1.50;;
45909;SDS011;31622;55.416;37.840;2023-04-30T10:18:44;4.60;;;1.77;;
45909;SDS011;31622;55.416;37.840;2023-04-30T10:21:11;3.55;;;0.93;;
45909;SDS011;31622;55.416;37.840;2023-04-30T10:23:38;4.07;;;1.42;;
45909;SDS011;31622;55.416;37.840;2023-04-30T10:26:08;2.20;;;1.10;;
45909;SDS011;31622;55.416;37.840;2023-04-30T10:28:36;2.38;;;1.20;;
45909;SDS011;31622;55.416;37.840;2023-04-30T10:31:02;1.98;;;1.23;;
45909;SDS011;31622;55.416;37.840;2023-04-30T10:33:44;5.30;;;1.40;;
45909;SDS011;31622;55.416;37.840;2023-04-30T10:36:58;4.32;;;1.23;;
45909;SDS011;31622;55.416;37.840;2023-04-30T10:39:09;2.40;;;1.17;;
45909;SDS011;31622;55.416;37.840;2023-04-30T10:41:35;2.55;;;1.20;;
45909;SDS011;31622;55.416;37.840;2023-04-30T10:44:01;2.17;;;1.30;;
45909;SDS011;31622;55.416;37.840;2023-04-30T10:46:29;4.10;;;1.40;;
45909;SDS011;31622;55.416;37.840;2023-04-30T10:48:55;4.03;;;1.40;;
45909;SDS011;31622;55.416;37.840;2023-04-30T10:51:21;2.50;;;1.20;;
45909;SDS011;31622;55.416;37.840;2023-04-30T10:53:50;3.17;;;1.10;;
45909;SDS011;31622;55.416;37.840;2023-04-30T10:56:30;4.50;;;1.63;;
45909;SDS011;31622;55.416;37.840;2023-04-30T10:58:59;4.43;;;1.38;;
45909;SDS011;31622;55.416;37.840;2023-04-30T11:01:27;2.10;;;1.20;;
45909;SDS011;31622;55.416;37.840;2023-04-30T11:09:34;2.47;;;1.10;;
45909;SDS011;31622;55.416;37.840;2023-04-30T11:12:03;5.15;;;1.08;;
45909;SDS011;31622;55.416;37.840;2023-04-30T11:14:34;4.90;;;1.10;;
45909;SDS011;31622;55.416;37.840;2023-04-30T11:17:00;2.20;;;1.35;;
45909;SDS011;31622;55.416;37.840;2023-04-30T11:19:26;2.50;;;1.13;;
45909;SDS011;31622;55.416;37.840;2023-04-30T11:24:49;3.22;;;1.30;;
45909;SDS011;31622;55.416;37.840;2023-04-30T11:27:18;2.03;;;1.02;;
45909;SDS011;31622;55.416;37.840;2023-04-30T11:29:48;4.13;;;1.25;;
45909;SDS011;31622;55.416;37.840;2023-04-30T11:32:14;5.88;;;1.52;;
45909;SDS011;31622;55.416;37.840;2023-04-30T11:34:40;3.83;;;1.80;;
45909;SDS011;31622;55.416;37.840;2023-04-30T11:37:08;6.70;;;2.05;;
45909;SDS011;31622;55.416;37.840;2023-04-30T11:39:37;5.50;;;1.92;;
45909;SDS011;31622;55.416;37.840;2023-04-30T11:42:05;3.58;;;1.70;;
45909;SDS011;31622;55.416;37.840;2023-04-30T11:44:31;5.57;;;1.70;;
45909;SDS011;31622;55.416;37.840;2023-04-30T11:46:57;4.05;;;2.00;;
45909;SDS011;31622;55.416;37.840;2023-04-30T11:49:24;4.85;;;1.95;;
45909;SDS011;31622;55.416;37.840;2023-04-30T11:51:51;3.40;;;1.83;;
45909;SDS011;31622;55.416;37.840;2023-04-30T11:54:17;3.75;;;1.70;;
45909;SDS011;31622;55.416;37.840;2023-04-30T11:56:47;5.75;;;1.95;;
45909;SDS011;31622;55.416;37.840;2023-04-30T11:59:13;3.10;;;1.95;;
45909;SDS011;31622;55.416;37.840;2023-04-30T12:01:39;4.32;;;2.03;;
45909;SDS011;31622;55.416;37.840;2023-04-30T12:04:05;4.38;;;2.20;;
45909;SDS011;31622;55.416;37.840;2023-04-30T12:06:32;5.28;;;2.00;;
45909;SDS011;31622;55.416;37.840;2023-04-30T12:08:58;4.07;;;1.90;;
45909;SDS011;31622;55.416;37.840;2023-04-30T12:11:33;6.22;;;2.30;;
45909;SDS011;31622;55.416;37.840;2023-04-30T12:14:00;3.90;;;1.90;;
45909;SDS011;31622;55.416;37.840;2023-04-30T12:19:24;3.00;;;1.70;;
45909;SDS011;31622;55.416;37.840;2023-04-30T12:21:51;4.70;;;1.67;;
45909;SDS011;31622;55.416;37.840;2023-04-30T12:24:19;3.40;;;1.58;;
45909;SDS011;31622;55.416;37.840;2023-04-30T12:26:45;4.38;;;1.75;;
45909;SDS011;31622;55.416;37.840;2023-04-30T12:29:16;5.38;;;1.75;;
45909;SDS011;31622;55.416;37.840;2023-04-30T12:31:42;3.58;;;1.40;;
45909;SDS011;31622;55.416;37.840;2023-04-30T12:34:10;3.72;;;1.55;;
45909;SDS011;31622;55.416;37.840;2023-04-30T12:36:38;2.60;;;1.55;;
45909;SDS011;31622;55.416;37.840;2023-04-30T12:41:40;2.65;;;1.30;;
45909;SDS011;31622;55.416;37.840;2023-04-30T12:44:19;2.47;;;1.20;;
45909;SDS011;31622;55.416;37.840;2023-04-30T12:46:47;4.85;;;1.52;;
45909;SDS011;31622;55.416;37.840;2023-04-30T12:49:26;3.15;;;1.50;;
45909;SDS011;31622;55.416;37.840;2023-04-30T12:54:29;4.00;;;1.63;;
45909;SDS011;31622;55.416;37.840;2023-04-30T12:57:02;3.28;;;1.42;;
45909;SDS011;31622;55.416;37.840;2023-04-30T12:59:29;3.38;;;1.40;;
45909;SDS011;31622;55.416;37.840;2023-04-30T13:04:38;2.90;;;1.40;;
45909;SDS011;31622;55.416;37.840;2023-04-30T13:07:04;4.22;;;1.50;;
45909;SDS011;31622;55.416;37.840;2023-04-30T13:09:31;2.83;;;1.52;;
45909;SDS011;31622;55.416;37.840;2023-04-30T13:11:57;3.97;;;1.70;;
45909;SDS011;31622;55.416;37.840;2023-04-30T13:14:23;4.20;;;1.63;;
45909;SDS011;31622;55.416;37.840;2023-04-30T13:16:49;4.70;;;1.80;;
45909;SDS011;31622;55.416;37.840;2023-04-30T13:19:15;3.60;;;1.83;;
45909;SDS011;31622;55.416;37.840;2023-04-30T13:21:40;6.07;;;2.20;;
45909;SDS011;31622;55.416;37.840;2023-04-30T13:24:06;4.63;;;2.13;;
45909;SDS011;31622;55.416;37.840;2023-04-30T13:26:32;4.63;;;2.00;;
45909;SDS011;31622;55.416;37.840;2023-04-30T13:28:57;4.05;;;1.88;;
45909;SDS011;31622;55.416;37.840;2023-04-30T13:31:23;3.70;;;1.60;;
45909;SDS011;31622;55.416;37.840;2023-04-30T13:33:49;4.20;;;2.00;;
45909;SDS011;31622;55.416;37.840;2023-04-30T13:36:15;6.72;;;2.05;;
45909;SDS011;31622;55.416;37.840;2023-04-30T13:38:41;4.30;;;1.70;;
45909;SDS011;31622;55.416;37.840;2023-04-30T13:41:07;4.18;;;2.45;;
45909;SDS011;31622;55.416;37.840;2023-04-30T13:43:33;4.78;;;2.17;;
45909;SDS011;31622;55.416;37.840;2023-04-30T13:45:58;3.17;;;1.90;;
45909;SDS011;31622;55.416;37.840;2023-04-30T13:48:24;3.35;;;1.70;;
45909;SDS011;31622;55.416;37.840;2023-04-30T13:50:53;2.67;;;1.60;;
45909;SDS011;31622;55.416;37.840;2023-04-30T13:53:18;4.55;;;1.80;;
45909;SDS011;31622;55.416;37.840;2023-04-30T13:55:44;3.38;;;1.73;;
45909;SDS011;31622;55.416;37.840;2023-04-30T13:58:10;4.05;;;2.00;;
45909;SDS011;31622;55.416;37.840;2023-04-30T14:00:35;5.43;;;1.75;;
45909;SDS011;31622;55.416;37.840;2023-04-30T14:03:01;2.70;;;1.80;;
45909;SDS011;31622;55.416;37.840;2023-04-30T14:05:27;5.18;;;1.70;;
45909;SDS011;31622;55.416;37.840;2023-04-30T14:07:52;5.05;;;1.58;;
45909;SDS011;31622;55.416;37.840;2023-04-30T14:10:18;4.15;;;2.00;;
45909;SDS011;31622;55.416;37.840;2023-04-30T14:12:44;3.38;;;1.70;;
45909;SDS011;31622;55.416;37.840;2023-04-30T14:15:09;3.22;;;1.65;;
45909;SDS011;31622;55.416;37.840;2023-04-30T14:17:35;3.13;;;1.52;;
45909;SDS011;31622;55.416;37.840;2023-04-30T14:20:01;6.15;;;1.90;;
45909;SDS011;31622;55.416;37.840;2023-04-30T14:22:27;2.95;;;1.50;;
45909;SDS011;31622;55.416;37.840;2023-04-30T14:24:52;5.15;;;1.98;;
45909;SDS011;31622;55.416;37.840;2023-04-30T14:27:18;4.60;;;1.85;;
45909;SDS011;31622;55.416;37.840;2023-04-30T14:29:45;5.88;;;1.65;;
45909;SDS011;31622;55.416;37.840;2023-04-30T14:32:12;3.63;;;1.65;;
45909;SDS011;31622;55.416;37.840;2023-04-30T14:34:40;4.00;;;2.10;;
45909;SDS011;31622;55.416;37.840;2023-04-30T14:37:06;3.40;;;2.00;;
45909;SDS011;31622;55.416;37.840;2023-04-30T14:39:32;4.80;;;2.13;;
45909;SDS011;31622;55.416;37.840;2023-04-30T14:41:58;2.70;;;1.80;;
45909;SDS011;31622;55.416;37.840;2023-04-30T14:44:23;3.50;;;1.90;;
45909;SDS011;31622;55.416;37.840;2023-04-30T14:46:50;3.50;;;1.70;;
45909;SDS011;31622;55.416;37.840;2023-04-30T14:49:16;3.28;;;1.83;;
45909;SDS011;31622;55.416;37.840;2023-04-30T14:51:42;4.30;;;1.88;;
45909;SDS011;31622;55.416;37.840;2023-04-30T14:54:07;2.85;;;1.77;;
45909;SDS011;31622;55.416;37.840;2023-04-30T14:56:33;2.97;;;1.85;;
45909;SDS011;31622;55.416;37.840;2023-04-30T14:58:59;6.32;;;2.15;;
45909;SDS011;31622;55.416;37.840;2023-04-30T15:01:25;4.05;;;2.13;;
45909;SDS011;31622;55.416;37.840;2023-04-30T15:03:50;3.53;;;2.10;;
45909;SDS011;31622;55.416;37.840;2023-04-30T15:06:17;5.95;;;2.30;;
45909;SDS011;31622;55.416;37.840;2023-04-30T15:08:43;5.72;;;2.03;;
45909;SDS011;31622;55.416;37.840;2023-04-30T15:11:09;3.78;;;1.90;;